Terminal Aerodrome Forecast
Issued by NWS

Home | Current Version | Previous Version | Graphics & Text | Print | Product List | Glossary On
Versions: 1 2 3 4 5 6 7 8 9 10 11 12 13 14 15 16 17 18
149
FTUS43 KGRB 261735
TAFAUW
TAF
KAUW 261735Z 2618/2718 11005KT 3SM -RA BR OVC007
     FM261900 24007KT 6SM BR VCSH OVC009
     FM270200 32007KT P6SM VCSH OVC009
     FM270800 33009KT 5SM -SHRA OVC008
     FM271600 30009KT P6SM OVC010=

USA.gov is the U.S. government's official web portal to all federal, state and local government web resources and services.